createdAt,value
2018-06-04T00:00:13.231Z,25.97
2018-06-04T00:02:41.690Z,25.00
2018-06-04T00:05:10.230Z,25.10
2018-06-04T00:07:38.743Z,27.20
2018-06-04T00:10:07.276Z,28.57
2018-06-04T00:12:35.779Z,25.67
2018-06-04T00:15:04.335Z,24.77
2018-06-04T00:17:32.901Z,26.43
2018-06-04T00:20:01.435Z,24.43
2018-06-04T00:22:29.961Z,27.27
2018-06-04T00:24:58.841Z,24.07
2018-06-04T00:27:27.557Z,27.90
2018-06-04T00:29:56.018Z,28.73
2018-06-04T00:32:24.559Z,26.20
2018-06-04T00:34:53.054Z,28.13
2018-06-04T00:37:21.564Z,24.37
2018-06-04T00:39:50.016Z,25.43
2018-06-04T00:42:18.550Z,27.60
2018-06-04T00:44:46.998Z,25.97
2018-06-04T00:47:15.468Z,26.33
2018-06-04T00:49:43.638Z,28.00
2018-06-04T00:52:12.099Z,30.00
2018-06-04T00:54:40.591Z,27.57
2018-06-04T00:57:09.043Z,23.60
2018-06-04T00:59:37.663Z,22.43
2018-06-04T01:02:06.172Z,22.77
2018-06-04T01:04:34.702Z,24.30
2018-06-04T01:07:03.180Z,24.80
2018-06-04T01:09:31.727Z,23.33
2018-06-04T01:12:00.182Z,28.83
2018-06-04T01:14:28.722Z,23.03
2018-06-04T01:16:57.164Z,26.00
2018-06-04T01:19:25.686Z,27.43
2018-06-04T01:21:54.175Z,30.43
2018-06-04T01:24:22.740Z,26.33
2018-06-04T01:26:51.209Z,36.80
2018-06-04T01:29:19.675Z,25.30
2018-06-04T01:31:48.166Z,26.30
2018-06-04T01:34:16.639Z,29.73
2018-06-04T01:36:45.168Z,28.40
2018-06-04T01:39:13.641Z,23.87
2018-06-04T01:41:42.137Z,28.27
2018-06-04T01:44:10.646Z,30.90
2018-06-04T01:46:39.141Z,29.47
2018-06-04T01:49:07.621Z,29.20
2018-06-04T01:51:36.127Z,28.40
2018-06-04T01:54:04.611Z,31.07
2018-06-04T01:56:33.129Z,31.23
2018-06-04T01:59:01.587Z,27.90
2018-06-04T02:01:30.100Z,31.23
2018-06-04T02:03:58.784Z,37.47
2018-06-04T02:06:27.288Z,27.33
2018-06-04T02:08:55.826Z,30.60
2018-06-04T02:11:24.362Z,28.03
2018-06-04T02:13:52.842Z,27.53
2018-06-04T02:16:21.354Z,27.60
2018-06-04T02:18:49.840Z,30.00
2018-06-04T02:21:18.336Z,26.73
2018-06-04T02:23:47.478Z,25.77
2018-06-04T02:26:15.950Z,28.40
2018-06-04T02:28:46.379Z,31.90
2018-06-04T02:31:14.862Z,30.87
2018-06-04T02:33:43.382Z,29.10
2018-06-04T02:36:11.988Z,35.90
2018-06-04T02:38:40.491Z,30.13
2018-06-04T02:41:08.675Z,27.73
2018-06-04T02:43:37.230Z,33.33
2018-06-04T02:46:05.880Z,36.67
2018-06-04T02:48:34.363Z,33.17
2018-06-04T02:51:02.879Z,35.73
2018-06-04T02:53:31.388Z,28.17
2018-06-04T02:55:59.863Z,33.33
2018-06-04T02:58:28.371Z,29.03
2018-06-04T03:00:56.866Z,29.30
2018-06-04T03:03:25.542Z,31.27
2018-06-04T03:05:54.068Z,33.90
2018-06-04T03:08:22.522Z,30.30
2018-06-04T03:10:51.074Z,30.23
2018-06-04T03:13:19.735Z,35.17
2018-06-04T03:15:48.287Z,33.50
2018-06-04T03:18:16.766Z,32.50
2018-06-04T03:20:45.292Z,30.70
2018-06-04T03:23:13.742Z,29.87
2018-06-04T03:25:42.311Z,27.17
2018-06-04T03:28:10.768Z,32.63
2018-06-04T03:30:39.283Z,31.03
2018-06-04T03:33:07.750Z,27.40
2018-06-04T03:35:36.263Z,27.40
2018-06-04T03:38:04.827Z,36.83
2018-06-04T03:40:33.315Z,37.17
2018-06-04T03:43:01.838Z,32.73
2018-06-04T03:45:30.378Z,29.47
2018-06-04T03:47:58.978Z,32.87
2018-06-04T03:50:27.193Z,31.30
2018-06-04T03:52:55.769Z,30.27
2018-06-04T03:55:24.238Z,30.50
2018-06-04T03:57:52.811Z,32.40
2018-06-04T04:00:21.300Z,30.10
2018-06-04T04:02:49.846Z,35.20
2018-06-04T04:05:18.339Z,27.13
2018-06-04T04:07:46.853Z,36.03
2018-06-04T04:10:15.405Z,31.27
2018-06-04T04:12:43.951Z,37.83
2018-06-04T04:15:12.424Z,33.10
2018-06-04T04:17:40.909Z,32.17
2018-06-04T04:20:09.356Z,33.80
2018-06-04T04:22:37.854Z,32.70
2018-06-04T04:25:06.345Z,36.97
2018-06-04T04:27:34.842Z,40.73
2018-06-04T04:30:03.314Z,33.80
2018-06-04T04:32:31.843Z,32.07
2018-06-04T04:35:00.362Z,32.97
2018-06-04T04:37:28.974Z,34.50
2018-06-04T04:39:57.443Z,31.40
2018-06-04T04:42:25.963Z,40.60
2018-06-04T04:44:54.479Z,30.90
2018-06-04T04:47:22.950Z,39.83
2018-06-04T04:49:51.457Z,34.03
2018-06-04T04:52:19.951Z,36.73
2018-06-04T04:54:48.643Z,32.67
2018-06-04T04:57:17.107Z,32.43
2018-06-04T04:59:45.622Z,30.93
2018-06-04T05:02:14.099Z,35.27
2018-06-04T05:04:42.608Z,29.13
2018-06-04T05:07:11.118Z,34.10
2018-06-04T05:09:39.344Z,34.23
2018-06-04T05:12:07.792Z,36.60
2018-06-04T05:14:37.138Z,34.53
2018-06-04T05:17:05.592Z,31.50
2018-06-04T05:19:34.271Z,34.57
2018-06-04T05:22:02.763Z,30.13
2018-06-04T05:24:31.263Z,32.03
2018-06-04T05:26:59.791Z,31.23
2018-06-04T05:29:28.320Z,37.17
2018-06-04T05:31:56.790Z,32.73
2018-06-04T05:34:25.335Z,34.97
2018-06-04T05:36:53.882Z,36.53
2018-06-04T05:39:22.405Z,28.73
2018-06-04T05:41:50.943Z,37.27
2018-06-04T05:44:19.405Z,33.33
2018-06-04T05:46:47.954Z,33.20
2018-06-04T05:49:16.458Z,35.10
2018-06-04T05:51:44.958Z,38.37
2018-06-04T05:54:13.631Z,32.47
2018-06-04T05:56:42.176Z,31.70
2018-06-04T05:59:10.690Z,45.37
2018-06-04T06:01:39.181Z,31.27
2018-06-04T06:04:07.716Z,32.63
2018-06-04T06:06:36.228Z,33.63
2018-06-04T06:09:08.433Z,35.10
2018-06-04T06:11:37.025Z,33.87
2018-06-04T06:14:06.027Z,33.33
2018-06-04T06:16:35.204Z,40.17
2018-06-04T06:19:03.721Z,38.43
2018-06-04T06:21:32.308Z,35.47
2018-06-04T06:24:01.793Z,36.47
2018-06-04T06:26:30.274Z,34.10
2018-06-04T06:28:58.791Z,34.10
2018-06-04T06:31:27.258Z,32.00
2018-06-04T06:33:55.801Z,32.63
2018-06-04T06:36:24.307Z,31.77
2018-06-04T06:38:52.883Z,33.53
2018-06-04T06:41:21.362Z,26.80
2018-06-04T06:43:49.903Z,29.27
2018-06-04T06:46:18.395Z,33.97
2018-06-04T06:48:46.944Z,32.20
2018-06-04T06:51:15.399Z,32.37
2018-06-04T06:53:44.475Z,29.13
2018-06-04T06:56:12.921Z,32.43
2018-06-04T06:58:41.516Z,32.17
2018-06-04T07:01:10.010Z,30.07
2018-06-04T07:03:38.554Z,34.70
2018-06-04T07:06:07.029Z,31.60
2018-06-04T07:08:36.332Z,29.47
2018-06-04T07:11:06.692Z,31.63
2018-06-04T07:13:38.848Z,28.93
2018-06-04T07:16:09.166Z,29.70
2018-06-04T07:18:37.659Z,28.27
2018-06-04T07:21:06.230Z,32.37
2018-06-04T07:23:36.174Z,29.27
2018-06-04T07:26:04.804Z,27.30
2018-06-04T07:28:33.309Z,28.60
2018-06-04T07:31:01.910Z,27.00
2018-06-04T07:33:30.395Z,34.40
2018-06-04T07:36:12.372Z,31.13
2018-06-04T07:38:41.262Z,31.77
2018-06-04T07:41:11.098Z,32.90
2018-06-04T07:43:40.550Z,33.20
2018-06-04T07:46:11.198Z,29.87
2018-06-04T07:48:39.711Z,33.20
2018-06-04T07:51:09.679Z,30.57
2018-06-04T07:53:39.405Z,31.43
2018-06-04T07:56:12.700Z,29.70
2018-06-04T07:58:41.238Z,35.40
2018-06-04T08:01:09.822Z,28.20
2018-06-04T08:03:38.586Z,33.73
2018-06-04T08:06:07.107Z,26.43
2018-06-04T08:08:35.728Z,31.50
2018-06-04T08:11:05.351Z,27.83
2018-06-04T08:13:34.031Z,31.47
2018-06-04T08:16:02.569Z,28.70
2018-06-04T08:18:32.170Z,22.80
2018-06-04T08:21:00.635Z,25.50
2018-06-04T08:23:29.147Z,25.70
2018-06-04T08:25:59.309Z,25.60
2018-06-04T08:28:27.830Z,28.27
2018-06-04T08:30:56.300Z,27.40
2018-06-04T08:33:24.775Z,22.27
2018-06-04T08:35:53.241Z,16.67
2018-06-04T08:38:21.794Z,24.00
2018-06-04T08:40:52.280Z,21.30
2018-06-04T08:43:21.830Z,23.50
2018-06-04T08:45:50.514Z,21.73
2018-06-04T08:48:18.990Z,22.00
2018-06-04T08:50:47.155Z,17.57
2018-06-04T08:53:15.724Z,19.70
2018-06-04T08:55:44.282Z,16.23
2018-06-04T08:58:13.015Z,24.67
2018-06-04T09:00:41.737Z,19.10
2018-06-04T09:03:10.187Z,16.30
2018-06-04T09:05:39.107Z,21.33
2018-06-04T09:08:07.598Z,19.30
2018-06-04T09:10:36.116Z,18.90
2018-06-04T09:13:04.852Z,19.63
2018-06-04T09:15:33.373Z,25.87
2018-06-04T09:18:01.871Z,17.10
2018-06-04T09:20:30.358Z,19.07
2018-06-04T09:22:58.810Z,19.77
2018-06-04T09:25:27.335Z,18.97
2018-06-04T09:27:55.829Z,19.63
2018-06-04T09:30:24.330Z,16.63
2018-06-04T09:32:52.792Z,21.20
2018-06-04T09:35:21.425Z,16.57
2018-06-04T09:37:49.903Z,18.40
2018-06-04T09:40:18.508Z,18.77
2018-06-04T09:42:46.695Z,20.43
2018-06-04T09:45:15.214Z,18.13
2018-06-04T09:47:43.707Z,18.27
2018-06-04T09:50:12.214Z,23.00
2018-06-04T09:52:40.695Z,21.50
2018-06-04T09:55:09.170Z,16.07
2018-06-04T09:57:37.843Z,17.20
2018-06-04T10:00:06.605Z,12.90
2018-06-04T10:02:35.166Z,17.90
2018-06-04T10:05:03.708Z,14.60
2018-06-04T10:07:32.316Z,16.27
2018-06-04T10:10:00.835Z,16.30
2018-06-04T10:12:29.483Z,23.87
2018-06-04T10:14:58.003Z,12.80
2018-06-04T10:17:26.514Z,19.57
2018-06-04T10:19:55.045Z,17.93
2018-06-04T10:22:23.542Z,21.17
2018-06-04T10:24:51.986Z,24.63
2018-06-04T10:27:20.509Z,17.90
2018-06-04T10:29:48.970Z,16.07
2018-06-04T10:32:17.090Z,24.73
2018-06-04T10:34:45.615Z,17.00
2018-06-04T10:37:14.810Z,14.80
2018-06-04T10:39:43.315Z,14.10
2018-06-04T10:42:11.790Z,11.80
2018-06-04T10:44:40.322Z,13.37
2018-06-04T10:47:08.773Z,15.37
2018-06-04T10:49:37.317Z,14.23
2018-06-04T10:52:05.864Z,10.50
2018-06-04T10:54:34.348Z,13.77
2018-06-04T10:57:02.825Z,15.17
2018-06-04T10:59:31.318Z,14.90
2018-06-04T11:02:00.039Z,15.23
2018-06-04T11:04:28.852Z,11.43
2018-06-04T11:06:57.339Z,12.60
2018-06-04T11:09:26.122Z,12.73
2018-06-04T11:11:54.618Z,13.77
2018-06-04T11:14:23.250Z,16.07
2018-06-04T11:16:51.465Z,14.07
2018-06-04T11:19:19.941Z,11.50
2018-06-04T11:21:48.439Z,25.63
2018-06-04T11:24:16.908Z,10.23
2018-06-04T11:26:45.392Z,11.23
2018-06-04T11:29:17.379Z,14.30
2018-06-04T11:31:46.644Z,10.80
2018-06-04T11:34:15.108Z,14.17
2018-06-04T11:36:44.210Z,15.90
2018-06-04T11:39:12.699Z,11.57
2018-06-04T11:41:41.175Z,12.00
2018-06-04T11:44:09.847Z,17.60
2018-06-04T11:46:38.512Z,12.20
2018-06-04T11:49:07.024Z,12.27
2018-06-04T11:51:35.561Z,13.87
2018-06-04T11:54:04.043Z,12.60
2018-06-04T11:56:32.612Z,12.03
2018-06-04T11:59:01.016Z,10.27
2018-06-04T12:01:29.570Z,13.67
2018-06-04T12:03:58.036Z,15.17
2018-06-04T12:06:26.529Z,9.73
2018-06-04T12:08:55.010Z,9.70
2018-06-04T12:11:23.703Z,12.03
2018-06-04T12:13:52.178Z,8.97
2018-06-04T12:16:20.650Z,12.10
2018-06-04T12:18:49.149Z,11.70
2018-06-04T12:21:17.631Z,9.73
2018-06-04T12:23:46.182Z,12.33
2018-06-04T12:26:14.694Z,10.77
2018-06-04T12:28:43.211Z,9.83
2018-06-04T12:31:11.757Z,10.20
2018-06-04T12:33:40.328Z,9.83
2018-06-04T12:36:08.855Z,11.40
2018-06-04T12:38:37.390Z,11.93
2018-06-04T12:41:05.880Z,9.87
2018-06-04T12:43:34.394Z,10.67
2018-06-04T12:46:02.846Z,12.50
2018-06-04T12:48:31.364Z,12.13
2018-06-04T12:50:59.842Z,12.67
2018-06-04T12:53:28.433Z,12.83
2018-06-04T12:55:56.916Z,15.43
2018-06-04T12:58:25.400Z,14.87
2018-06-04T13:00:53.961Z,10.93
2018-06-04T13:03:22.435Z,12.73
2018-06-04T13:05:51.000Z,12.90
2018-06-04T13:08:19.534Z,10.90
2018-06-04T13:10:48.136Z,15.37
2018-06-04T13:13:16.651Z,11.30
2018-06-04T13:15:45.223Z,11.00
2018-06-04T13:18:13.801Z,11.03
2018-06-04T13:20:42.323Z,11.23
2018-06-04T13:23:10.920Z,15.40
2018-06-04T13:25:52.124Z,12.53
2018-06-04T13:28:27.652Z,10.07
2018-06-04T13:30:56.122Z,10.27
2018-06-04T13:33:24.646Z,15.33
2018-06-04T13:35:53.171Z,11.10
2018-06-04T13:38:21.629Z,9.80
2018-06-04T13:40:50.114Z,10.43
2018-06-04T13:43:18.581Z,11.30
2018-06-04T13:45:47.098Z,9.83
2018-06-04T13:48:15.622Z,12.40
2018-06-04T13:50:44.218Z,6.77
2018-06-04T13:53:12.791Z,9.03
2018-06-04T13:55:41.333Z,11.53
2018-06-04T13:58:09.861Z,8.63
2018-06-04T14:00:39.531Z,14.20
2018-06-04T14:03:09.385Z,12.67
2018-06-04T14:05:37.874Z,14.20
2018-06-04T14:08:06.443Z,8.73
2018-06-04T14:10:34.618Z,8.80
2018-06-04T14:13:03.778Z,8.60
2018-06-04T14:15:32.205Z,9.07
2018-06-04T14:18:00.688Z,8.27
2018-06-04T14:20:29.120Z,10.87
2018-06-04T14:22:57.593Z,8.50
2018-06-04T14:25:26.046Z,10.23
2018-06-04T14:27:54.622Z,9.07
2018-06-04T14:30:23.065Z,8.33
2018-06-04T14:32:52.042Z,8.60
2018-06-04T14:35:20.488Z,8.40
2018-06-04T14:37:53.289Z,8.43
2018-06-04T14:40:21.750Z,8.30
2018-06-04T14:42:50.230Z,9.07
2018-06-04T14:45:18.865Z,8.77
2018-06-04T14:47:48.707Z,8.77
2018-06-04T14:50:17.179Z,8.27
2018-06-04T14:52:47.299Z,8.37
2018-06-04T14:55:15.797Z,10.00
2018-06-04T14:57:45.376Z,10.00
2018-06-04T15:00:13.846Z,8.13
2018-06-04T15:02:42.366Z,8.33
2018-06-04T15:05:10.940Z,7.80
2018-06-04T15:07:41.731Z,10.10
2018-06-04T15:10:10.303Z,9.60
2018-06-04T15:12:38.734Z,8.73
2018-06-04T15:15:08.547Z,8.80
2018-06-04T15:17:37.005Z,9.40
2018-06-04T15:20:05.599Z,9.60
2018-06-04T15:22:34.144Z,8.97
2018-06-04T15:25:02.671Z,8.60
2018-06-04T15:27:31.154Z,8.43
2018-06-04T15:29:59.664Z,9.63
2018-06-04T15:32:28.173Z,8.97
2018-06-04T15:34:56.704Z,13.63
2018-06-04T15:37:25.175Z,8.80
2018-06-04T15:39:53.658Z,10.00
2018-06-04T15:42:22.131Z,8.90
2018-06-04T15:44:50.652Z,8.33
2018-06-04T15:47:19.146Z,8.73
2018-06-04T15:49:47.644Z,9.10
2018-06-04T15:52:16.096Z,8.77
2018-06-04T15:54:44.679Z,8.90
2018-06-04T15:57:13.217Z,8.70
2018-06-04T15:59:41.720Z,8.57
2018-06-04T16:02:10.221Z,15.27
2018-06-04T16:04:38.739Z,10.77
2018-06-04T16:07:07.266Z,8.00
2018-06-04T16:09:35.764Z,7.73
2018-06-04T16:12:04.406Z,8.80
2018-06-04T16:14:32.845Z,8.40
2018-06-04T16:17:01.370Z,8.67
2018-06-04T16:19:29.939Z,7.27
2018-06-04T16:21:58.532Z,9.20
2018-06-04T16:24:27.046Z,8.07
2018-06-04T16:26:55.653Z,13.50
2018-06-04T16:29:24.190Z,9.60
2018-06-04T16:31:52.783Z,10.70
2018-06-04T16:34:21.467Z,9.70
2018-06-04T16:36:50.111Z,16.50
2018-06-04T16:39:18.597Z,11.40
2018-06-04T16:41:47.283Z,11.70
2018-06-04T16:44:15.851Z,10.50
2018-06-04T16:46:44.372Z,11.13
2018-06-04T16:49:12.925Z,13.93
2018-06-04T16:51:41.427Z,10.47
2018-06-04T16:54:10.007Z,9.20
2018-06-04T16:56:38.573Z,11.47
2018-06-04T16:59:07.310Z,11.00
2018-06-04T17:01:35.938Z,16.17
2018-06-04T17:04:04.501Z,10.00
2018-06-04T17:06:33.267Z,18.03
2018-06-04T17:09:01.834Z,10.10
2018-06-04T17:11:30.607Z,11.00
2018-06-04T17:13:59.183Z,12.27
2018-06-04T17:16:27.676Z,13.77
2018-06-04T17:18:56.368Z,11.27
2018-06-04T17:21:25.026Z,10.33
2018-06-04T17:23:53.565Z,14.60
2018-06-04T17:26:22.102Z,10.60
2018-06-04T17:28:51.857Z,11.63
2018-06-04T17:31:20.907Z,11.43
2018-06-04T17:33:49.556Z,10.60
2018-06-04T17:36:18.276Z,10.67
2018-06-04T17:38:47.032Z,14.40
2018-06-04T17:41:15.564Z,10.73
2018-06-04T17:43:44.263Z,11.00
2018-06-04T17:46:12.847Z,13.30
2018-06-04T17:48:41.689Z,12.10
2018-06-04T17:51:10.540Z,10.53
2018-06-04T17:53:39.189Z,10.70
2018-06-04T17:56:08.184Z,11.27
2018-06-04T17:58:36.709Z,18.13
2018-06-04T18:01:05.431Z,12.23
2018-06-04T18:03:33.962Z,11.70
2018-06-04T18:06:02.514Z,11.60
2018-06-04T18:08:31.098Z,11.83
2018-06-04T18:10:59.846Z,11.97
2018-06-04T18:13:28.416Z,14.33
2018-06-04T18:15:57.009Z,20.80
2018-06-04T18:18:25.533Z,11.80
2018-06-04T18:20:54.106Z,13.60
2018-06-04T18:23:22.721Z,12.10
2018-06-04T18:25:51.298Z,17.70
2018-06-04T18:28:19.806Z,10.83
2018-06-04T18:30:48.576Z,16.40
2018-06-04T18:33:17.155Z,15.10
2018-06-04T18:35:45.653Z,12.60
2018-06-04T18:38:14.175Z,16.33
2018-06-04T18:40:42.654Z,14.43
2018-06-04T18:43:11.222Z,14.93
2018-06-04T18:45:39.716Z,13.27
2018-06-04T18:48:08.393Z,13.23
2018-06-04T18:50:36.872Z,11.27
2018-06-04T18:53:05.433Z,12.73
2018-06-04T18:55:33.903Z,10.80
2018-06-04T18:58:02.453Z,10.17
2018-06-04T19:00:31.824Z,11.63
2018-06-04T19:03:00.393Z,11.23
2018-06-04T19:05:29.027Z,12.43
2018-06-04T19:07:57.501Z,12.43
2018-06-04T19:10:26.178Z,15.33
2018-06-04T19:12:54.662Z,12.37
2018-06-04T19:15:23.214Z,13.53
2018-06-04T19:17:51.671Z,11.87
2018-06-04T19:20:20.929Z,15.73
2018-06-04T19:22:49.418Z,11.30
2018-06-04T19:25:17.923Z,11.77
2018-06-04T19:27:46.409Z,12.33
2018-06-04T19:30:14.902Z,14.87
2018-06-04T19:32:43.110Z,13.60
2018-06-04T19:35:11.659Z,23.87
2018-06-04T19:37:40.128Z,15.17
2018-06-04T19:40:08.729Z,11.83
2018-06-04T19:42:37.178Z,13.07
2018-06-04T19:45:05.755Z,18.93
2018-06-04T19:47:34.275Z,12.23
2018-06-04T19:50:02.507Z,12.20
2018-06-04T19:52:31.073Z,21.27
2018-06-04T19:54:59.607Z,16.70
2018-06-04T19:57:28.156Z,19.67
2018-06-04T19:59:56.680Z,15.70
2018-06-04T20:02:25.236Z,16.77
2018-06-04T20:04:53.841Z,14.50
2018-06-04T20:07:22.385Z,13.30
2018-06-04T20:09:50.931Z,18.20
2018-06-04T20:12:19.497Z,17.40
2018-06-04T20:14:47.992Z,17.57
2018-06-04T20:17:16.549Z,13.10
2018-06-04T20:19:45.447Z,17.33
2018-06-04T20:22:14.007Z,19.03
2018-06-04T20:24:42.482Z,16.90
2018-06-04T20:27:11.085Z,16.47
2018-06-04T20:29:39.582Z,18.13
2018-06-04T20:32:08.102Z,17.67
2018-06-04T20:34:36.598Z,18.73
2018-06-04T20:37:05.145Z,16.17
2018-06-04T20:39:33.690Z,16.00
2018-06-04T20:42:02.159Z,20.87
2018-06-04T20:44:30.670Z,17.07
2018-06-04T20:46:59.207Z,18.23
2018-06-04T20:49:27.770Z,16.10
2018-06-04T20:51:56.343Z,19.93
2018-06-04T20:54:24.900Z,20.20
2018-06-04T20:56:53.385Z,15.87
2018-06-04T20:59:21.998Z,20.33
2018-06-04T21:01:51.198Z,15.20
2018-06-04T21:04:19.940Z,15.30
2018-06-04T21:06:48.526Z,15.57
2018-06-04T21:09:17.115Z,24.73
2018-06-04T21:11:45.962Z,17.60
2018-06-04T21:14:15.738Z,14.07
2018-06-04T21:16:44.437Z,18.90
2018-06-04T21:19:15.400Z,20.37
2018-06-04T21:21:43.937Z,19.00
2018-06-04T21:24:12.554Z,27.10
2018-06-04T21:26:41.121Z,16.83
2018-06-04T21:29:09.679Z,15.50
2018-06-04T21:31:39.003Z,16.30
2018-06-04T21:34:07.576Z,24.23
2018-06-04T21:36:36.785Z,18.30
2018-06-04T21:39:07.523Z,23.30
2018-06-04T21:41:42.986Z,17.20
2018-06-04T21:44:14.755Z,15.60
2018-06-04T21:46:43.378Z,15.30
2018-06-04T21:49:16.192Z,18.03
2018-06-04T21:51:44.779Z,17.57
2018-06-04T21:54:13.264Z,16.37
2018-06-04T21:56:41.884Z,16.17
2018-06-04T21:59:10.470Z,15.33
2018-06-04T22:01:39.079Z,15.23
2018-06-04T22:04:11.093Z,16.70
2018-06-04T22:06:44.253Z,16.40
2018-06-04T22:09:12.785Z,16.40
2018-06-04T22:11:43.068Z,20.33
2018-06-04T22:14:11.582Z,15.63
2018-06-04T22:16:42.380Z,19.47
2018-06-04T22:19:13.767Z,14.50
2018-06-04T22:21:43.081Z,17.73
2018-06-04T22:24:11.647Z,20.37
2018-06-04T22:26:41.031Z,14.87
2018-06-04T22:29:09.654Z,15.63
2018-06-04T22:31:39.437Z,16.93
2018-06-04T22:34:16.839Z,16.27
2018-06-04T22:36:45.456Z,23.53
2018-06-04T22:39:14.129Z,20.40
2018-06-04T22:41:44.298Z,17.23
2018-06-04T22:44:12.845Z,17.77
2018-06-04T22:46:41.438Z,20.03
2018-06-04T22:49:10.616Z,16.83
2018-06-04T22:51:39.354Z,17.07
2018-06-04T22:54:09.432Z,19.17
2018-06-04T22:56:39.807Z,20.23
2018-06-04T22:59:08.289Z,17.13
2018-06-04T23:01:37.586Z,18.57
2018-06-04T23:04:08.007Z,18.47
2018-06-04T23:06:37.418Z,19.70
2018-06-04T23:09:07.466Z,18.40
2018-06-04T23:11:36.286Z,22.33
2018-06-04T23:14:04.875Z,18.93
2018-06-04T23:16:34.466Z,18.50
2018-06-04T23:19:03.600Z,21.53
2018-06-04T23:21:34.068Z,24.30
2018-06-04T23:24:04.363Z,23.70
2018-06-04T23:26:35.094Z,20.97
2018-06-04T23:29:06.486Z,21.23
2018-06-04T23:31:35.186Z,19.20
2018-06-04T23:34:04.358Z,27.90
2018-06-04T23:36:33.318Z,23.50
2018-06-04T23:39:02.028Z,19.93
2018-06-04T23:41:31.089Z,23.17
2018-06-04T23:44:05.512Z,26.13
2018-06-04T23:46:34.945Z,21.97
2018-06-04T23:49:04.564Z,20.10
2018-06-04T23:51:34.883Z,22.03
2018-06-04T23:54:03.430Z,19.17
2018-06-04T23:56:32.391Z,20.63
2018-06-04T23:59:03.287Z,23.10
